createdAt,value
2022-09-02T00:02:57.216Z,71.20
2022-09-02T00:05:59.215Z,69.60
2022-09-02T00:09:02.449Z,69.80
2022-09-02T00:12:04.447Z,70.20
2022-09-02T00:15:06.895Z,70.30
2022-09-02T00:18:12.670Z,69.80
2022-09-02T00:21:17.498Z,69.90
2022-09-02T00:24:20.025Z,70.00
2022-09-02T00:27:21.762Z,69.70
2022-09-02T00:30:23.852Z,69.70
2022-09-02T00:33:25.723Z,70.10
2022-09-02T00:36:27.455Z,71.00
2022-09-02T00:39:29.170Z,71.10
2022-09-02T00:42:31.001Z,71.60
2022-09-02T00:45:32.992Z,70.80
2022-09-02T00:48:36.919Z,70.90
2022-09-02T00:51:49.573Z,71.60
2022-09-02T00:54:58.547Z,71.40
2022-09-02T00:58:05.083Z,72.20
2022-09-02T01:01:11.782Z,71.40
2022-09-02T01:04:13.645Z,71.80
2022-09-02T01:07:16.088Z,71.80
2022-09-02T01:10:22.733Z,71.80
2022-09-02T01:13:30.500Z,71.20
2022-09-02T01:16:44.114Z,71.10
2022-09-02T01:19:50.420Z,71.50
2022-09-02T01:22:54.781Z,71.90
2022-09-02T01:25:57.467Z,72.50
2022-09-02T01:28:59.612Z,73.20
2022-09-02T01:32:02.430Z,72.50
2022-09-02T01:35:05.028Z,71.80
2022-09-02T01:38:06.868Z,72.20
2022-09-02T01:41:08.571Z,70.80
2022-09-02T01:44:12.097Z,71.90
2022-09-02T01:47:18.132Z,72.70
2022-09-02T01:50:21.139Z,71.40
2022-09-02T01:53:23.801Z,71.40
2022-09-02T01:56:27.064Z,72.10
2022-09-02T01:59:29.692Z,72.10
2022-09-02T02:02:31.526Z,72.40
2022-09-02T02:05:37.289Z,72.40
2022-09-02T02:08:39.790Z,71.60
2022-09-02T02:11:42.047Z,72.90
2022-09-02T02:14:44.808Z,71.70
2022-09-02T02:17:46.873Z,72.00
2022-09-02T02:20:48.689Z,72.00
2022-09-02T02:23:50.900Z,71.60
2022-09-02T02:26:53.318Z,72.10
2022-09-02T02:29:55.940Z,71.70
2022-09-02T02:32:57.816Z,71.90
2022-09-02T02:36:00.601Z,72.10
2022-09-02T02:39:02.716Z,72.10
2022-09-02T02:42:04.771Z,73.20
2022-09-02T02:45:15.108Z,72.90
2022-09-02T02:48:17.999Z,72.30
2022-09-02T02:51:20.173Z,72.40
2022-09-02T02:54:24.419Z,72.50
2022-09-02T02:57:39.061Z,72.60
2022-09-02T03:00:42.285Z,73.10
2022-09-02T03:03:44.625Z,72.60
2022-09-02T03:06:47.311Z,73.20
2022-09-02T03:09:49.107Z,73.60
2022-09-02T03:12:51.865Z,72.90
2022-09-02T03:15:56.004Z,73.10
2022-09-02T03:18:57.837Z,72.00
2022-09-02T03:21:59.559Z,72.40
2022-09-02T03:25:01.695Z,72.70
2022-09-02T03:28:04.438Z,73.00
2022-09-02T03:31:07.097Z,73.00
2022-09-02T03:34:08.935Z,73.30
2022-09-02T03:37:10.839Z,73.30
2022-09-02T03:40:16.099Z,71.90
2022-09-02T03:43:17.978Z,72.00
2022-09-02T03:46:20.002Z,72.80
2022-09-02T03:49:22.030Z,73.90
2022-09-02T03:52:24.440Z,76.20
2022-09-02T03:55:26.982Z,73.80
2022-09-02T03:58:29.319Z,72.70
2022-09-02T04:01:34.405Z,73.90
2022-09-02T04:04:37.919Z,74.50
2022-09-02T04:07:40.555Z,74.80
2022-09-02T04:10:44.703Z,74.00
2022-09-02T04:13:47.835Z,73.80
2022-09-02T04:16:52.847Z,74.00
2022-09-02T04:19:55.031Z,74.90
2022-09-02T04:22:56.796Z,75.90
2022-09-02T04:25:59.614Z,74.80
2022-09-02T04:29:01.838Z,75.20
2022-09-02T04:32:04.347Z,76.40
2022-09-02T04:35:06.305Z,76.00
2022-09-02T04:38:09.547Z,76.90
2022-09-02T04:41:17.754Z,75.70
2022-09-02T04:44:20.060Z,75.80
2022-09-02T04:47:22.927Z,75.70
2022-09-02T04:50:25.555Z,78.10
2022-09-02T04:53:34.290Z,76.60
2022-09-02T04:56:38.429Z,77.40
2022-09-02T04:59:42.439Z,78.10
2022-09-02T05:02:47.221Z,77.00
2022-09-02T05:05:59.936Z,78.00
2022-09-02T05:09:04.091Z,78.40
2022-09-02T05:12:08.919Z,77.30
2022-09-02T05:15:18.640Z,77.10
2022-09-02T05:18:22.959Z,78.60
2022-09-02T05:21:25.075Z,78.10
2022-09-02T05:24:28.095Z,75.90
2022-09-02T05:27:33.127Z,77.50
2022-09-02T05:30:37.297Z,78.10
2022-09-02T05:33:40.941Z,76.90
2022-09-02T05:36:43.162Z,77.50
2022-09-02T05:39:47.093Z,78.50
2022-09-02T05:42:48.863Z,78.10
2022-09-02T05:45:52.275Z,78.10
2022-09-02T05:49:09.099Z,77.30
2022-09-02T05:52:24.861Z,77.50
2022-09-02T05:55:28.855Z,77.70
2022-09-02T05:58:31.201Z,78.20
2022-09-02T06:01:34.197Z,78.00
2022-09-02T06:04:45.488Z,78.30
2022-09-02T06:07:47.699Z,78.10
2022-09-02T06:10:49.481Z,77.80
2022-09-02T06:13:55.388Z,78.90
2022-09-02T06:16:59.249Z,78.30
2022-09-02T06:20:12.205Z,78.80
2022-09-02T06:23:17.577Z,77.60
2022-09-02T06:26:20.709Z,78.40
2022-09-02T06:29:24.582Z,78.80
2022-09-02T06:32:28.047Z,78.20
2022-09-02T06:35:40.907Z,78.10
2022-09-02T06:38:48.236Z,78.00
2022-09-02T06:41:50.043Z,78.90
2022-09-02T06:44:54.335Z,78.70
2022-09-02T06:47:57.043Z,78.30
2022-09-02T06:50:58.943Z,77.20
2022-09-02T06:54:04.657Z,79.30
2022-09-02T06:57:09.689Z,77.70
2022-09-02T07:00:13.483Z,78.10
2022-09-02T07:03:34.556Z,78.30
2022-09-02T07:06:41.623Z,80.00
2022-09-02T07:09:44.106Z,78.40
2022-09-02T07:12:49.993Z,78.30
2022-09-02T07:15:52.695Z,78.60
2022-09-02T07:18:56.725Z,77.90
2022-09-02T07:21:59.424Z,77.50
2022-09-02T07:25:01.966Z,78.80
2022-09-02T07:28:05.559Z,78.30
2022-09-02T07:31:12.152Z,77.00
2022-09-02T07:34:16.496Z,77.10
2022-09-02T07:37:18.991Z,76.50
2022-09-02T07:40:20.875Z,75.50
2022-09-02T07:43:22.853Z,76.70
2022-09-02T07:46:25.008Z,75.10
2022-09-02T07:49:27.995Z,75.70
2022-09-02T07:52:30.351Z,74.90
2022-09-02T07:55:34.953Z,74.80
2022-09-02T07:58:43.052Z,74.20
2022-09-02T08:01:45.672Z,74.10
2022-09-02T08:04:47.461Z,74.80
2022-09-02T08:07:49.946Z,73.50
2022-09-02T08:10:52.488Z,73.00
2022-09-02T08:13:54.956Z,71.90
2022-09-02T08:16:57.968Z,71.50
2022-09-02T08:20:01.999Z,72.60
2022-09-02T08:23:12.528Z,71.20
2022-09-02T08:26:21.495Z,70.30
2022-09-02T08:29:23.488Z,71.00
2022-09-02T08:32:25.459Z,70.70
2022-09-02T08:35:27.328Z,69.60
2022-09-02T08:38:29.141Z,69.50
2022-09-02T08:41:55.025Z,70.50
2022-09-02T08:45:12.515Z,68.90
2022-09-02T08:48:24.516Z,67.40
2022-09-02T08:51:37.759Z,68.90
2022-09-02T08:54:48.359Z,67.30
2022-09-02T08:57:50.253Z,65.80
2022-09-02T09:01:15.209Z,63.60
2022-09-02T09:04:23.896Z,61.70
2022-09-02T09:07:45.520Z,60.40
2022-09-02T09:11:03.831Z,60.10
2022-09-02T09:14:28.669Z,58.20
2022-09-02T09:17:39.606Z,58.00
2022-09-02T09:20:43.650Z,56.20
2022-09-02T09:23:46.571Z,55.60
2022-09-02T09:26:48.347Z,55.60
2022-09-02T09:29:51.209Z,56.70
2022-09-02T09:32:54.945Z,53.10
2022-09-02T09:35:58.624Z,53.30
2022-09-02T09:39:20.179Z,52.50
2022-09-02T09:42:32.969Z,52.30
2022-09-02T09:45:46.032Z,52.80
2022-09-02T09:48:49.740Z,52.80
2022-09-02T09:51:55.576Z,53.20
2022-09-02T09:55:07.365Z,52.40
2022-09-02T09:58:10.387Z,52.70
2022-09-02T10:01:24.529Z,52.40
2022-09-02T10:04:47.700Z,53.20
2022-09-02T10:07:59.297Z,53.60
2022-09-02T10:11:05.282Z,54.40
2022-09-02T10:14:10.140Z,55.30
2022-09-02T10:17:40.175Z,54.80
2022-09-02T10:21:11.502Z,53.80
2022-09-02T10:25:07.714Z,54.20
2022-09-02T10:28:37.020Z,54.40
2022-09-02T10:32:13.726Z,53.20
2022-09-02T10:35:42.399Z,53.00
2022-09-02T10:38:47.614Z,50.60
2022-09-02T10:41:52.009Z,52.20
2022-09-02T10:45:24.115Z,49.90
2022-09-02T10:49:04.622Z,50.50
2022-09-02T10:52:11.599Z,50.20
2022-09-02T10:55:44.320Z,51.50
2022-09-02T10:58:53.227Z,51.90
2022-09-02T11:01:57.273Z,51.90
2022-09-02T11:05:08.075Z,51.40
2022-09-02T11:08:36.391Z,49.80
2022-09-02T11:11:51.376Z,48.10
2022-09-02T11:15:05.224Z,47.70
2022-09-02T11:18:27.341Z,48.40
2022-09-02T11:21:36.767Z,46.80
2022-09-02T11:24:46.583Z,46.40
2022-09-02T11:28:32.277Z,46.10
2022-09-02T11:31:58.619Z,45.90
2022-09-02T11:35:06.895Z,46.80
2022-09-02T11:38:39.802Z,47.10
2022-09-02T11:42:22.856Z,46.80
2022-09-02T11:45:47.918Z,47.40
2022-09-02T11:49:08.585Z,47.30
2022-09-02T11:52:27.694Z,46.90
2022-09-02T11:55:37.287Z,45.90
2022-09-02T11:58:52.935Z,46.30
2022-09-02T12:01:55.511Z,44.30
2022-09-02T12:05:29.718Z,44.30
2022-09-02T12:08:36.839Z,41.00
2022-09-02T12:11:43.168Z,41.40
2022-09-02T12:14:47.684Z,42.50
2022-09-02T12:17:49.769Z,42.00
2022-09-02T12:21:16.278Z,41.40
2022-09-02T12:24:21.301Z,42.30
2022-09-02T12:27:36.549Z,43.20
2022-09-02T12:31:01.573Z,43.40
2022-09-02T12:34:23.369Z,44.60
2022-09-02T12:37:54.475Z,44.20
2022-09-02T12:41:05.088Z,44.70
2022-09-02T12:44:31.451Z,41.90
2022-09-02T12:48:11.445Z,41.90
2022-09-02T12:51:52.232Z,37.70
2022-09-02T12:54:55.391Z,37.60
2022-09-02T12:58:11.001Z,36.60
2022-09-02T13:01:36.317Z,37.50
2022-09-02T13:05:01.462Z,38.70
2022-09-02T13:08:45.493Z,39.80
2022-09-02T13:12:02.241Z,39.50
2022-09-02T13:15:06.906Z,39.40
2022-09-02T13:18:34.637Z,39.30
2022-09-02T13:21:54.015Z,39.20
2022-09-02T13:25:04.820Z,39.50
2022-09-02T13:28:20.823Z,39.90
2022-09-02T13:31:24.122Z,39.80
2022-09-02T13:34:28.149Z,39.90
2022-09-02T13:37:38.447Z,40.00
2022-09-02T13:40:43.743Z,39.70
2022-09-02T13:43:45.725Z,40.10
2022-09-02T13:46:49.837Z,39.30
2022-09-02T13:49:53.800Z,40.10
2022-09-02T13:56:25.404Z,38.20
2022-09-02T13:59:41.178Z,38.20
2022-09-02T14:02:56.460Z,38.20
2022-09-02T14:05:59.917Z,37.50
2022-09-02T14:09:03.911Z,37.90
2022-09-02T14:12:06.780Z,37.00
2022-09-02T14:15:13.287Z,37.00
2022-09-02T14:18:19.261Z,37.30
2022-09-02T14:21:22.133Z,37.50
2022-09-02T14:24:28.065Z,36.50
2022-09-02T14:27:29.809Z,37.50
2022-09-02T14:30:37.933Z,36.80
2022-09-02T14:33:45.362Z,36.40
2022-09-02T14:36:47.047Z,35.20
2022-09-02T14:40:09.708Z,35.20
2022-09-02T14:43:16.180Z,33.60
2022-09-02T14:46:27.001Z,33.30
2022-09-02T14:49:32.746Z,32.40
2022-09-02T14:52:36.548Z,33.10
2022-09-02T14:55:55.721Z,32.90
2022-09-02T14:58:57.400Z,31.90
2022-09-02T15:01:59.617Z,31.70
2022-09-02T15:05:07.220Z,31.10
2022-09-02T15:08:09.230Z,31.30
2022-09-02T15:11:14.465Z,32.40
2022-09-02T15:14:16.308Z,31.90
2022-09-02T15:17:18.429Z,31.90
2022-09-02T15:20:21.709Z,31.50
2022-09-02T15:23:24.097Z,31.70
2022-09-02T15:26:26.433Z,32.70
2022-09-02T15:29:29.099Z,32.10
2022-09-02T15:32:31.067Z,32.60
2022-09-02T15:35:33.902Z,32.80
2022-09-02T15:38:37.599Z,32.40
2022-09-02T15:41:39.616Z,32.60
2022-09-02T15:44:41.344Z,33.40
2022-09-02T15:47:43.041Z,32.60
2022-09-02T15:50:44.758Z,33.30
2022-09-02T15:53:53.749Z,33.00
2022-09-02T15:56:57.100Z,33.00
2022-09-02T15:59:59.997Z,33.20
2022-09-02T16:03:01.803Z,33.00
2022-09-02T16:06:07.766Z,32.90
2022-09-02T16:09:11.078Z,33.70
2022-09-02T16:12:13.214Z,33.90
2022-09-02T16:15:15.115Z,34.30
2022-09-02T16:18:16.779Z,34.80
2022-09-02T16:21:20.120Z,34.40
2022-09-02T16:24:23.125Z,34.50
2022-09-02T16:27:43.456Z,34.60
2022-09-02T16:30:46.581Z,35.30
2022-09-02T16:33:59.837Z,34.90
2022-09-02T16:37:01.523Z,35.00
2022-09-02T16:40:03.835Z,35.30
2022-09-02T16:43:05.800Z,35.60
2022-09-02T16:46:07.550Z,35.80
2022-09-02T16:49:13.893Z,35.80
2022-09-02T16:52:15.648Z,36.20
2022-09-02T16:55:18.642Z,36.70
2022-09-02T16:58:20.317Z,36.70
2022-09-02T17:01:23.263Z,36.90
2022-09-02T17:04:25.030Z,37.30
2022-09-02T17:07:26.699Z,37.70
2022-09-02T17:10:30.520Z,37.80
2022-09-02T17:13:32.232Z,38.40
2022-09-02T17:16:37.527Z,38.30
2022-09-02T17:19:39.276Z,38.40
2022-09-02T17:22:41.809Z,38.30
2022-09-02T17:25:46.194Z,38.00
2022-09-02T17:28:48.027Z,38.20
2022-09-02T17:31:49.753Z,38.90
2022-09-02T17:34:51.485Z,38.30
2022-09-02T17:37:53.151Z,38.40
2022-09-02T17:41:13.365Z,38.20
2022-09-02T17:44:15.896Z,38.70
2022-09-02T17:47:20.394Z,38.60
2022-09-02T17:50:22.161Z,38.70
2022-09-02T17:53:26.599Z,39.50
2022-09-02T17:56:46.330Z,39.40
2022-09-02T18:00:07.138Z,39.80
2022-09-02T18:03:41.762Z,40.10
2022-09-02T18:06:45.335Z,40.50
2022-09-02T18:09:48.238Z,40.90
2022-09-02T18:12:49.941Z,41.30
2022-09-02T18:16:13.756Z,41.50
2022-09-02T18:19:37.552Z,42.60
2022-09-02T18:22:48.547Z,42.30
2022-09-02T18:25:59.207Z,42.40
2022-09-02T18:29:43.045Z,43.20
2022-09-02T18:33:04.087Z,43.00
2022-09-02T18:36:11.567Z,43.40
2022-09-02T18:39:41.094Z,43.90
2022-09-02T18:43:20.371Z,44.10
2022-09-02T18:46:25.090Z,44.30
2022-09-02T18:49:30.884Z,45.10
2022-09-02T18:52:34.795Z,45.50
2022-09-02T18:55:38.749Z,45.10
2022-09-02T18:58:49.179Z,45.50
2022-09-02T19:01:56.346Z,45.90
2022-09-02T19:04:59.171Z,46.20
2022-09-02T19:08:33.267Z,46.40
2022-09-02T19:11:37.401Z,47.00
2022-09-02T19:14:40.696Z,47.90
2022-09-02T19:17:42.707Z,50.10
2022-09-02T19:20:44.420Z,48.90
2022-09-02T19:23:47.745Z,50.00
2022-09-02T19:26:51.473Z,50.50
2022-09-02T19:30:00.192Z,50.70
2022-09-02T19:33:06.068Z,51.00
2022-09-02T19:36:08.337Z,52.10
2022-09-02T19:39:10.189Z,51.40
2022-09-02T19:42:11.969Z,51.60
2022-09-02T19:45:16.363Z,51.50
2022-09-02T19:48:19.693Z,53.00
2022-09-02T19:51:26.586Z,52.00
2022-09-02T19:54:29.128Z,51.80
2022-09-02T19:57:30.937Z,52.30
2022-09-02T20:00:33.633Z,53.10
2022-09-02T20:03:35.507Z,52.10
2022-09-02T20:06:37.241Z,53.20
2022-09-02T20:09:39.205Z,52.20
2022-09-02T20:12:40.937Z,52.50
2022-09-02T20:15:42.599Z,52.40
2022-09-02T20:18:48.317Z,52.50
2022-09-02T20:21:50.115Z,52.20
2022-09-02T20:24:51.831Z,52.70
2022-09-02T20:28:23.724Z,52.90
2022-09-02T20:31:50.937Z,53.20
2022-09-02T20:35:25.147Z,54.00
2022-09-02T20:38:50.648Z,53.90
2022-09-02T20:42:22.911Z,53.80
2022-09-02T20:45:27.615Z,54.50
2022-09-02T20:48:48.073Z,54.80
2022-09-02T20:52:07.123Z,55.10
2022-09-02T20:55:31.741Z,54.80
2022-09-02T20:58:39.808Z,55.30
2022-09-02T21:01:44.668Z,55.90
2022-09-02T21:04:52.840Z,55.80
2022-09-02T21:08:08.205Z,56.00
2022-09-02T21:11:13.898Z,56.30
2022-09-02T21:14:32.821Z,57.20
2022-09-02T21:18:16.296Z,56.70
2022-09-02T21:21:48.886Z,57.30
2022-09-02T21:25:06.704Z,58.00
2022-09-02T21:28:32.498Z,57.40
2022-09-02T21:31:48.350Z,57.00
2022-09-02T21:35:00.815Z,57.90
2022-09-02T21:38:07.018Z,58.40
2022-09-02T21:41:20.355Z,58.00
2022-09-02T21:44:45.227Z,59.10
2022-09-02T21:47:56.914Z,58.50
2022-09-02T21:51:01.072Z,59.00
2022-09-02T21:54:10.581Z,59.70
2022-09-02T21:57:47.995Z,59.80
2022-09-02T22:01:01.500Z,61.40
2022-09-02T22:04:17.535Z,63.10
2022-09-02T22:07:28.317Z,64.20
2022-09-02T22:10:54.132Z,62.20
2022-09-02T22:13:59.355Z,62.20
2022-09-02T22:17:22.627Z,61.80
2022-09-02T22:20:34.102Z,62.80
2022-09-02T22:23:36.303Z,60.90
2022-09-02T22:26:44.158Z,62.30
2022-09-02T22:29:53.735Z,62.70
2022-09-02T22:33:11.119Z,62.90
2022-09-02T22:36:27.115Z,61.50
2022-09-02T22:39:41.301Z,60.60
2022-09-02T22:42:46.910Z,61.00
2022-09-02T22:46:17.313Z,60.30
2022-09-02T22:49:40.308Z,59.80
2022-09-02T22:52:49.285Z,59.70
2022-09-02T22:56:06.773Z,60.60
2022-09-02T22:59:24.164Z,61.50
2022-09-02T23:02:41.534Z,62.00
2022-09-02T23:06:03.243Z,61.60
2022-09-02T23:09:10.262Z,61.40
2022-09-02T23:12:17.537Z,61.80
2022-09-02T23:15:30.969Z,61.80
2022-09-02T23:18:45.625Z,61.40
2022-09-02T23:22:10.097Z,62.00
2022-09-02T23:25:34.348Z,62.70
2022-09-02T23:29:18.296Z,62.40
2022-09-02T23:32:43.440Z,63.60
2022-09-02T23:36:11.670Z,63.80
2022-09-02T23:39:30.214Z,66.00
2022-09-02T23:42:32.120Z,66.70
2022-09-02T23:45:35.607Z,68.40
2022-09-02T23:48:56.352Z,67.60
2022-09-02T23:52:36.057Z,67.60
2022-09-02T23:55:54.547Z,66.10
2022-09-02T23:59:26.436Z,67.60
